Time;durP1;ratioP1;P1;durP2;ratioP2;P2;SDS_P1;SDS_P2;PMS_P1;PMS_P2;Temp;Humidity;BMP_temperature;BMP_pressure;BME280_temperature;BME280_humidity;BME280_pressure;Samples;Min_cycle;Max_cycle;Signal;HPM_P1;HPM_P2
2021/12/05 00:22:16;;;;;;;;;;;;;;;;;;5036319;28;20376;-71
2021/12/05 00:24:45;;;;;;;;;;;;;;;;;;5035607;28;19917;-72
2021/12/05 00:27:24;;;;;;;;;;;;;;;;;;5036179;28;19925;-72
2021/12/05 00:38:14;;;;;;;;;;;;;;;;;;5035705;28;19909;-70
2021/12/05 00:43:42;;;;;;;;;;;;;;;;;;5035304;28;20019;-72
2021/12/05 00:49:37;;;;;;;;;;;;;;;;;;4974431;28;19918;-73
2021/12/05 00:59:58;;;;;;;;;;;;;;;;;;4974200;28;20016;-70
2021/12/05 01:08:36;;;;;;;;;;;;;;;;;;4916064;29;19923;-72
2021/12/05 01:11:13;;;;;;;;;;;;;;;;;;4916450;29;20380;-72
2021/12/05 01:13:59;;;;;;;;;;;;;;;;;;4916602;29;19919;-72
2021/12/05 01:16:25;;;;;;;;;;;;;;;;;;4916752;29;19921;-72
2021/12/05 01:18:50;;;;;;;;;;;;;;;;;;4916311;29;19920;-72
2021/12/05 01:21:16;;;;;;;;;;;;;;;;;;4916211;29;19919;-72
2021/12/05 01:23:54;;;;;;;;;;;;;;;;;;4919811;29;19958;-72
2021/12/05 01:26:28;;;;;;;;;;;;;;;;;;4954468;29;20104;-72
2021/12/05 01:45:01;;;;;;;;;;;;;;;;;;5051999;28;19923;-72
2021/12/05 01:53:22;;;;;;;;;;;;;;;;;;5054320;28;19919;-72
2021/12/05 02:09:22;;;;;;;;;;;;;;;;;;5033592;28;19917;-72
2021/12/05 02:45:52;;;;;;;;;;;;;;;;;;5032592;28;19922;-71
2021/12/05 02:48:20;;;;;;;;;;;;;;;;;;5032912;28;20385;-72
2021/12/05 02:50:45;;;;;;;;;;;;;;;;;;5053525;28;19964;-71
2021/12/05 02:53:17;;;;;;;;;;;;;;;;;;5053258;28;20392;-71
2021/12/05 02:55:44;;;;;;;;;;;;;;;;;;5052860;28;19913;-71
2021/12/05 03:01:07;;;;;;;;;;;;;;;;;;5052865;28;20392;-72
2021/12/05 03:03:32;;;;;;;;;;;;;;;;;;5052552;28;19917;-71
2021/12/05 03:06:02;;;;;;;;;;;;;;;;;;5052998;28;19928;-71
2021/12/05 03:08:28;;;;;;;;;;;;;;;;;;5053009;28;19917;-71
2021/12/05 03:10:53;;;;;;;;;;;;;;;;;;5052736;28;19913;-71
2021/12/05 03:13:18;;;;;;;;;;;;;;;;;;5053600;28;19947;-71
2021/12/05 03:15:43;;;;;;;;;;;;;;;;;;5052650;28;19917;-71
2021/12/05 03:18:08;;;;;;;;;;;;;;;;;;5052850;28;19953;-71
2021/12/05 03:20:33;;;;;;;;;;;;;;;;;;5052809;28;19917;-72
2021/12/05 03:22:58;;;;;;;;;;;;;;;;;;5052777;28;20356;-70
2021/12/05 03:25:23;;;;;;;;;;;;;;;;;;5053230;28;20384;-71
2021/12/05 03:27:49;;;;;;;;;;;;;;;;;;5054037;28;19917;-72
2021/12/05 03:30:14;;;;;;;;;;;;;;;;;;5056516;28;20322;-70
2021/12/05 03:32:57;;;;;;;;;;;;;;;;;;5056521;28;19916;-71
2021/12/05 03:35:22;;;;;;;;;;;;;;;;;;5056295;28;19923;-72
2021/12/05 03:37:47;;;;;;;;;;;;;;;;;;5056815;28;20353;-72
2021/12/05 03:40:12;;;;;;;;;;;;;;;;;;5056837;28;19950;-72
2021/12/05 03:42:38;;;;;;;;;;;;;;;;;;5056328;28;19917;-72
2021/12/05 03:45:03;;;;;;;;;;;;;;;;;;5056245;28;19916;-72
2021/12/05 03:47:29;;;;;;;;;;;;;;;;;;5055971;28;19948;-72
2021/12/05 03:49:55;;;;;;;;;;;;;;;;;;5056246;28;19963;-73
2021/12/05 03:52:20;;;;;;;;;;;;;;;;;;5056540;28;19909;-72
2021/12/05 03:54:45;;;;;;;;;;;;;;;;;;5056472;28;19916;-71
2021/12/05 03:57:10;;;;;;;;;;;;;;;;;;5056056;28;19963;-71
2021/12/05 03:59:35;;;;;;;;;;;;;;;;;;5055926;28;19916;-72
2021/12/05 04:02:00;;;;;;;;;;;;;;;;;;5056423;28;19921;-71
2021/12/05 04:04:25;;;;;;;;;;;;;;;;;;5050366;28;19944;-71
2021/12/05 04:06:50;;;;;;;;;;;;;;;;;;5035862;28;20378;-71
2021/12/05 04:09:16;;;;;;;;;;;;;;;;;;5035852;28;19975;-72
2021/12/05 04:11:44;;;;;;;;;;;;;;;;;;5036161;28;19917;-73
2021/12/05 04:14:09;;;;;;;;;;;;;;;;;;5035788;28;20376;-72
2021/12/05 04:16:34;;;;;;;;;;;;;;;;;;5036479;28;19917;-71
2021/12/05 04:18:59;;;;;;;;;;;;;;;;;;5035624;28;19917;-71
2021/12/05 04:21:25;;;;;;;;;;;;;;;;;;5035762;28;19917;-71
2021/12/05 04:23:50;;;;;;;;;;;;;;;;;;5035976;28;19917;-71
2021/12/05 04:26:15;;;;;;;;;;;;;;;;;;5035712;28;20288;-72
2021/12/05 04:28:40;;;;;;;;;;;;;;;;;;5035930;28;19910;-70
2021/12/05 04:31:08;;;;;;;;;;;;;;;;;;5036239;28;19913;-73
2021/12/05 04:33:33;;;;;;;;;;;;;;;;;;5035657;28;20362;-72
2021/12/05 04:35:58;;;;;;;;;;;;;;;;;;5035491;28;20392;-71
2021/12/05 04:38:23;;;;;;;;;;;;;;;;;;5035597;28;20350;-72
2021/12/05 04:40:48;;;;;;;;;;;;;;;;;;5035537;28;19960;-72
2021/12/05 04:43:13;;;;;;;;;;;;;;;;;;5035867;28;19909;-72
2021/12/05 04:45:38;;;;;;;;;;;;;;;;;;5035056;28;20015;-72
2021/12/05 04:48:03;;;;;;;;;;;;;;;;;;5051257;28;20007;-72
2021/12/05 04:50:29;;;;;;;;;;;;;;;;;;5054909;28;20021;-71
2021/12/05 04:52:54;;;;;;;;;;;;;;;;;;5055219;28;19913;-72
2021/12/05 04:55:19;;;;;;;;;;;;;;;;;;5055568;28;20353;-72
2021/12/05 04:57:44;;;;;;;;;;;;;;;;;;5055185;28;19960;-72
2021/12/05 05:00:11;;;;;;;;;;;;;;;;;;5054824;28;19912;-72
2021/12/05 05:02:36;;;;;;;;;;;;;;;;;;5053650;28;19917;-72
2021/12/05 05:05:01;;;;;;;;;;;;;;;;;;5054544;28;20003;-72
2021/12/05 05:07:27;;;;;;;;;;;;;;;;;;5055123;28;19919;-72
2021/12/05 05:09:52;;;;;;;;;;;;;;;;;;5054596;28;19917;-71
2021/12/05 05:12:17;;;;;;;;;;;;;;;;;;5054553;28;19917;-72
2021/12/05 05:14:42;;;;;;;;;;;;;;;;;;5054136;28;20292;-71
2021/12/05 05:17:10;;;;;;;;;;;;;;;;;;5054160;28;19912;-72
2021/12/05 05:19:42;;;;;;;;;;;;;;;;;;5054633;28;19913;-70
2021/12/05 05:22:22;;;;;;;;;;;;;;;;;;5055258;28;19916;-72
2021/12/05 05:30:17;;;;;;;;;;;;;;;;;;5054339;28;19920;-71
2021/12/05 05:46:12;;;;;;;;;;;;;;;;;;5053891;28;19921;-72
2021/12/05 05:54:05;;;;;;;;;;;;;;;;;;5034041;28;19920;-72
2021/12/05 05:56:31;;;;;;;;;;;;;;;;;;5016466;28;19917;-72
2021/12/05 05:59:14;;;;;;;;;;;;;;;;;;5034202;28;19917;-71
2021/12/05 06:03:20;;;;;;;;;;;;;;;;;;5033956;28;20011;-71
2021/12/05 06:04:25;;;;;;;;;;;;;;;;;;5033973;28;20266;-71
2021/12/05 06:06:50;;;;;;;;;;;;;;;;;;5033857;28;19932;-71
2021/12/05 06:09:15;;;;;;;;;;;;;;;;;;5033799;28;19917;-72
2021/12/05 06:11:40;;;;;;;;;;;;;;;;;;5033447;28;19921;-72
2021/12/05 06:14:05;;;;;;;;;;;;;;;;;;5033393;28;19924;-72
2021/12/05 06:16:30;;;;;;;;;;;;;;;;;;5034227;28;19931;-72
2021/12/05 06:18:55;;;;;;;;;;;;;;;;;;5033730;28;19913;-72
2021/12/05 06:21:20;;;;;;;;;;;;;;;;;;5033743;28;20369;-72
2021/12/05 06:23:46;;;;;;;;;;;;;;;;;;5033623;28;19921;-72
2021/12/05 06:26:13;;;;;;;;;;;;;;;;;;5033552;28;19920;-72
2021/12/05 06:28:41;;;;;;;;;;;;;;;;;;5033576;28;20059;-72
2021/12/05 06:47:27;;;;;;;;;;;;;;;;;;5052604;28;20400;-71
2021/12/05 06:49:52;;;;;;;;;;;;;;;;;;5053653;28;19920;-72
2021/12/05 06:52:17;;;;;;;;;;;;;;;;;;5053650;28;20385;-71
2021/12/05 06:54:42;;;;;;;;;;;;;;;;;;5052854;28;19913;-72
2021/12/05 06:57:07;;;;;;;;;;;;;;;;;;5052734;28;19917;-71
2021/12/05 06:59:32;;;;;;;;;;;;;;;;;;5053105;28;19924;-72
2021/12/05 07:01:57;;;;;;;;;;;;;;;;;;5054447;28;20059;-72
2021/12/05 07:06:50;;;;;;;;;;;;;;;;;;5056588;28;19932;-72
2021/12/05 07:09:16;;;;;;;;;;;;;;;;;;5056895;28;19913;-72
2021/12/05 07:21:55;;;;;;;;;;;;;;;;;;5064261;28;20400;-72
2021/12/05 07:40:26;;;;;;;;;;;;;;;;;;5064532;28;19954;-73
2021/12/05 07:42:51;;;;;;;;;;;;;;;;;;5055954;28;19917;-72
2021/12/05 07:45:20;;;;;;;;;;;;;;;;;;5064769;28;19970;-71
2021/12/05 07:47:50;;;;;;;;;;;;;;;;;;5062863;28;19928;-72
2021/12/05 07:50:16;;;;;;;;;;;;;;;;;;5056394;28;19913;-71
2021/12/05 07:52:43;;;;;;;;;;;;;;;;;;5056153;28;19920;-72
2021/12/05 07:55:44;;;;;;;;;;;;;;;;;;5056940;28;20507;-72
2021/12/05 08:16:44;;;;;;;;;;;;;;;;;;5036264;28;20020;-72
2021/12/05 08:19:09;;;;;;;;;;;;;;;;;;5036964;28;20261;-72
2021/12/05 08:21:34;;;;;;;;;;;;;;;;;;5034282;28;20247;-71
2021/12/05 08:24:01;;;;;;;;;;;;;;;;;;5035556;28;20064;-71
2021/12/05 08:26:32;;;;;;;;;;;;;;;;;;5035559;28;19928;-72
2021/12/05 09:20:38;;;;;;;;;;;;;;;;;;5055841;28;19920;-70
2021/12/05 09:30:29;;;;;;;;;;;;;;;;;;5060038;28;19923;-78
2021/12/05 10:03:03;;;;;;;;;;;;;;;;;;5053764;28;19924;-73
2021/12/05 10:13:22;;;;;;;;;;;;;;;;;;5054890;28;19963;-70
2021/12/05 10:37:18;;;;;;;;;;;;;;;;;;4933354;29;20324;-69
2021/12/05 10:39:43;;;;;;;;;;;;;;;;;;4933094;29;19915;-70
2021/12/05 10:42:24;;;;;;;;;;;;;;;;;;4933094;29;20343;-69
2021/12/05 10:44:49;;;;;;;;;;;;;;;;;;4917807;29;19918;-69
2021/12/05 10:47:16;;;;;;;;;;;;;;;;;;4931703;29;21455;-70
2021/12/05 10:49:41;;;;;;;;;;;;;;;;;;4933297;29;20042;-69
2021/12/05 10:52:06;;;;;;;;;;;;;;;;;;4933236;29;19946;-72
2021/12/05 10:54:31;;;;;;;;;;;;;;;;;;4933896;29;19915;-71
2021/12/05 10:56:56;;;;;;;;;;;;;;;;;;4933594;29;20427;-70
2021/12/05 10:59:23;;;;;;;;;;;;;;;;;;4934830;29;19922;-71
2021/12/05 11:01:48;;;;;;;;;;;;;;;;;;4953149;29;19915;-71
2021/12/05 11:04:13;;;;;;;;;;;;;;;;;;4953745;29;19906;-71
2021/12/05 11:06:38;;;;;;;;;;;;;;;;;;5022173;28;19922;-71
2021/12/05 11:09:03;;;;;;;;;;;;;;;;;;5038217;28;19913;-71
2021/12/05 11:11:28;;;;;;;;;;;;;;;;;;5054225;28;19969;-72
2021/12/05 11:13:54;;;;;;;;;;;;;;;;;;5054115;28;20365;-71
2021/12/05 11:16:19;;;;;;;;;;;;;;;;;;5053345;28;19916;-71
2021/12/05 11:18:44;;;;;;;;;;;;;;;;;;5052973;28;19913;-72
2021/12/05 11:21:09;;;;;;;;;;;;;;;;;;5052730;28;19924;-73
2021/12/05 11:23:34;;;;;;;;;;;;;;;;;;5052510;28;19974;-71
2021/12/05 11:25:59;;;;;;;;;;;;;;;;;;5052377;28;19975;-72
2021/12/05 11:28:27;;;;;;;;;;;;;;;;;;5053032;28;19913;-71
2021/12/05 11:30:52;;;;;;;;;;;;;;;;;;5052465;28;20320;-72
2021/12/05 11:33:18;;;;;;;;;;;;;;;;;;5052694;28;20008;-72
2021/12/05 11:35:44;;;;;;;;;;;;;;;;;;5052573;28;19924;-71
2021/12/05 11:38:09;;;;;;;;;;;;;;;;;;5052513;28;19913;-72
2021/12/05 11:40:34;;;;;;;;;;;;;;;;;;5053102;28;19935;-71
2021/12/05 11:43:00;;;;;;;;;;;;;;;;;;5052413;28;19999;-71
2021/12/05 11:45:25;;;;;;;;;;;;;;;;;;5052103;28;19925;-72
2021/12/05 11:47:51;;;;;;;;;;;;;;;;;;5052287;28;20011;-72
2021/12/05 11:50:19;;;;;;;;;;;;;;;;;;5056202;28;19971;-72
2021/12/05 11:52:44;;;;;;;;;;;;;;;;;;5056151;28;19920;-73
2021/12/05 11:55:09;;;;;;;;;;;;;;;;;;5056546;28;19912;-72
2021/12/05 11:57:34;;;;;;;;;;;;;;;;;;5056029;28;19923;-72
2021/12/05 12:00:00;;;;;;;;;;;;;;;;;;5055970;28;19917;-73
2021/12/05 12:02:26;;;;;;;;;;;;;;;;;;5055513;28;19931;-71
2021/12/05 12:04:51;;;;;;;;;;;;;;;;;;5055600;28;20341;-72
2021/12/05 12:07:16;;;;;;;;;;;;;;;;;;5055835;28;19990;-72
2021/12/05 12:09:41;;;;;;;;;;;;;;;;;;5055228;28;19952;-72
2021/12/05 12:12:06;;;;;;;;;;;;;;;;;;5055670;28;19921;-72
2021/12/05 12:14:32;;;;;;;;;;;;;;;;;;5055482;28;20364;-72
2021/12/05 12:16:58;;;;;;;;;;;;;;;;;;5055761;28;19917;-73
2021/12/05 12:19:23;;;;;;;;;;;;;;;;;;5056276;28;19909;-74
2021/12/05 12:21:51;;;;;;;;;;;;;;;;;;5055303;28;20383;-71
2021/12/05 12:24:17;;;;;;;;;;;;;;;;;;5055283;28;19917;-72
2021/12/05 12:26:43;;;;;;;;;;;;;;;;;;5055337;28;20000;-72
2021/12/05 12:29:09;;;;;;;;;;;;;;;;;;5055841;28;20044;-71
2021/12/05 12:31:35;;;;;;;;;;;;;;;;;;5055763;28;19951;-71
2021/12/05 12:34:02;;;;;;;;;;;;;;;;;;5055650;28;19917;-72
2021/12/05 12:36:27;;;;;;;;;;;;;;;;;;5055388;28;19924;-72
2021/12/05 12:38:52;;;;;;;;;;;;;;;;;;5055256;28;19913;-71
2021/12/05 12:41:18;;;;;;;;;;;;;;;;;;5055489;28;20284;-72
2021/12/05 12:43:43;;;;;;;;;;;;;;;;;;5055150;28;19909;-72
2021/12/05 12:46:08;;;;;;;;;;;;;;;;;;5037203;28;19924;-72
2021/12/05 12:48:33;;;;;;;;;;;;;;;;;;5037372;28;20369;-72
2021/12/05 12:50:58;;;;;;;;;;;;;;;;;;5054707;28;19929;-72
2021/12/05 12:53:24;;;;;;;;;;;;;;;;;;5054832;28;19912;-71
2021/12/05 12:55:49;;;;;;;;;;;;;;;;;;5055411;28;19992;-72
2021/12/05 12:58:14;;;;;;;;;;;;;;;;;;5055413;28;20327;-74
2021/12/05 13:00:41;;;;;;;;;;;;;;;;;;5054755;28;20054;-73
2021/12/05 13:03:26;;;;;;;;;;;;;;;;;;5052971;28;19995;-72
2021/12/05 13:07:17;;;;;;;;;;;;;;;;;;5074513;28;20364;-73
2021/12/05 13:11:40;;;;;;;;;;;;;;;;;;5013002;28;19917;-74
2021/12/05 13:14:05;;;;;;;;;;;;;;;;;;5012993;28;20471;-71
2021/12/05 13:16:34;;;;;;;;;;;;;;;;;;5013139;28;19965;-72
2021/12/05 13:18:59;;;;;;;;;;;;;;;;;;5011416;28;20409;-73
2021/12/05 13:21:24;;;;;;;;;;;;;;;;;;4998837;28;20386;-70
2021/12/05 13:23:50;;;;;;;;;;;;;;;;;;4992265;28;20303;-73
2021/12/05 13:26:15;;;;;;;;;;;;;;;;;;4991741;28;20025;-73
2021/12/05 13:28:42;;;;;;;;;;;;;;;;;;4992484;28;19916;-71
2021/12/05 13:31:07;;;;;;;;;;;;;;;;;;4992333;28;19914;-72
2021/12/05 13:33:33;;;;;;;;;;;;;;;;;;4992973;28;19914;-73
2021/12/05 13:35:58;;;;;;;;;;;;;;;;;;4992339;28;19918;-72
2021/12/05 13:38:25;;;;;;;;;;;;;;;;;;4992314;28;19918;-76
2021/12/05 13:43:55;;;;;;;;;;;;;;;;;;5036781;28;20364;-73
2021/12/05 13:46:20;;;;;;;;;;;;;;;;;;5028574;28;20327;-71
2021/12/05 13:48:46;;;;;;;;;;;;;;;;;;5027343;28;19914;-72
2021/12/05 13:51:11;;;;;;;;;;;;;;;;;;5026255;28;19925;-73
2021/12/05 13:53:36;;;;;;;;;;;;;;;;;;5027301;28;20012;-73
2021/12/05 13:58:40;;;;;;;;;;;;;;;;;;4869788;27;19955;-72
2021/12/05 14:01:06;;;;;;;;;;;;;;;;;;4984202;28;19908;-72
2021/12/05 14:03:31;;;;;;;;;;;;;;;;;;5056441;28;19982;-73
2021/12/05 14:05:56;;;;;;;;;;;;;;;;;;5059040;28;20598;-71
2021/12/05 14:08:21;;;;;;;;;;;;;;;;;;5081607;28;20093;-71
2021/12/05 14:10:48;;;;;;;;;;;;;;;;;;5077152;28;19912;-71
2021/12/05 14:13:14;;;;;;;;;;;;;;;;;;5076814;28;20427;-71
2021/12/05 14:15:40;;;;;;;;;;;;;;;;;;5074990;28;19917;-72
2021/12/05 14:18:05;;;;;;;;;;;;;;;;;;5067994;28;20270;-72
2021/12/05 14:20:30;;;;;;;;;;;;;;;;;;5066961;28;20287;-73
2021/12/05 14:22:56;;;;;;;;;;;;;;;;;;5069199;28;19963;-73
2021/12/05 14:25:21;;;;;;;;;;;;;;;;;;5066336;28;20599;-72
2021/12/05 14:27:47;;;;;;;;;;;;;;;;;;5072014;28;19916;-71
2021/12/05 14:30:12;;;;;;;;;;;;;;;;;;5084765;28;20356;-71
2021/12/05 14:32:37;;;;;;;;;;;;;;;;;;5076052;28;19953;-72
2021/12/05 14:35:02;;;;;;;;;;;;;;;;;;5066537;28;19978;-72
2021/12/05 14:37:28;;;;;;;;;;;;;;;;;;5083125;28;20023;-73
2021/12/05 14:39:55;;;;;;;;;;;;;;;;;;5074533;28;20391;-72
2021/12/05 14:42:20;;;;;;;;;;;;;;;;;;5076135;28;20436;-71
2021/12/05 14:44:45;;;;;;;;;;;;;;;;;;5075126;28;20008;-70
2021/12/05 14:47:10;;;;;;;;;;;;;;;;;;5082518;28;19922;-71
2021/12/05 14:49:35;;;;;;;;;;;;;;;;;;5084880;28;19913;-70
2021/12/05 14:52:03;;;;;;;;;;;;;;;;;;5072995;28;19919;-73
2021/12/05 14:54:28;;;;;;;;;;;;;;;;;;5076533;28;19924;-72
2021/12/05 14:56:53;;;;;;;;;;;;;;;;;;5085312;28;19924;-71
2021/12/05 14:59:18;;;;;;;;;;;;;;;;;;5089854;28;20450;-73
2021/12/05 15:01:44;;;;;;;;;;;;;;;;;;5103105;28;19923;-71
2021/12/05 15:04:10;;;;;;;;;;;;;;;;;;5090133;28;19954;-70
2021/12/05 15:07:31;;;;;;;;;;;;;;;;;;5093031;27;1293930;-72
2021/12/05 15:09:56;;;;;;;;;;;;;;;;;;5069566;27;4452;-71
2021/12/05 15:12:22;;;;;;;;;;;;;;;;;;5081077;28;4469;-71
2021/12/05 15:14:47;;;;;;;;;;;;;;;;;;5086807;28;4437;-72
2021/12/05 15:18:11;;;;;;;;;;;;;;;;;;5030115;27;19929;-74
2021/12/05 15:20:37;;;;;;;18.00;12.25;;;;;;;;;;5019031;28;24448;-71
2021/12/05 15:23:07;;;;;;;16.50;10.77;;;;;;;;;;5023421;28;20544;-70
2021/12/05 15:25:33;;;;;;;17.08;11.23;;;;;;;;;;5006810;28;20061;-71
2021/12/05 15:34:53;;;;;;;;;;;;;;;;;;5017349;27;20695;-58
2021/12/05 15:37:18;;;;;;;;;;;;;;;;;;4793401;28;19918;-58
2021/12/05 15:39:43;;;;;;;;;;;;;;;;;;5068868;28;19933;-57
2021/12/05 15:42:09;;;;;;;;;;;;;;;;;;5019326;28;19920;-58
2021/12/05 15:44:34;;;;;;;;;;;;;;;;;;5068125;28;19920;-57
2021/12/05 15:46:59;;;;;;;;;;;;;;;;;;5044943;28;19913;-57
2021/12/05 15:49:25;;;;;;;;;;;;;;;;;;5039043;28;19905;-58
2021/12/05 15:51:51;;;;;;;;;;;;;;;;;;5045404;28;20289;-58
2021/12/05 15:54:16;;;;;;;;;;;;;;;;;;5044913;28;19924;-58
2021/12/05 15:56:41;;;;;;;;;;;;;;;;;;5042796;28;19967;-59
2021/12/05 15:59:10;;;;;;;;;;;;;;;;;;5040089;28;19916;-57
2021/12/05 16:01:37;;;;;;;;;;;;;;;;;;5043115;28;20019;-57
2021/12/05 16:04:03;;;;;;;;;;;;;;;;;;5040576;28;20360;-57
2021/12/05 16:06:28;;;;;;;;;;;;;;;;;;5045966;28;19920;-57
2021/12/05 16:08:54;;;;;;;;;;;;;;;;;;5045421;28;19914;-59
